sensor_id;sensor_type;location;lat;lon;timestamp;P1;durP1;ratioP1;P2;durP2;ratioP2
21777;SDS011;11050;52.222;20.916;2024-01-07T00:01:49;22.30;;;9.87;;
21777;SDS011;11050;52.222;20.916;2024-01-07T00:04:15;19.03;;;9.17;;
21777;SDS011;11050;52.222;20.916;2024-01-07T00:06:42;23.77;;;10.13;;
21777;SDS011;11050;52.222;20.916;2024-01-07T00:09:07;22.40;;;9.27;;
21777;SDS011;11050;52.222;20.916;2024-01-07T00:11:33;20.23;;;9.80;;
21777;SDS011;11050;52.222;20.916;2024-01-07T00:13:59;20.20;;;10.03;;
21777;SDS011;11050;52.222;20.916;2024-01-07T00:16:25;19.43;;;8.97;;
21777;SDS011;11050;52.222;20.916;2024-01-07T00:18:50;22.87;;;9.47;;
21777;SDS011;11050;52.222;20.916;2024-01-07T00:21:16;19.77;;;9.17;;
21777;SDS011;11050;52.222;20.916;2024-01-07T00:23:42;18.73;;;9.80;;
21777;SDS011;11050;52.222;20.916;2024-01-07T00:26:09;23.60;;;9.67;;
21777;SDS011;11050;52.222;20.916;2024-01-07T00:28:35;22.60;;;8.90;;
21777;SDS011;11050;52.222;20.916;2024-01-07T00:31:00;20.57;;;8.93;;
21777;SDS011;11050;52.222;20.916;2024-01-07T00:33:26;23.40;;;9.87;;
21777;SDS011;11050;52.222;20.916;2024-01-07T00:35:52;23.27;;;10.33;;
21777;SDS011;11050;52.222;20.916;2024-01-07T00:38:18;24.70;;;10.40;;
21777;SDS011;11050;52.222;20.916;2024-01-07T00:40:43;22.80;;;10.50;;
21777;SDS011;11050;52.222;20.916;2024-01-07T00:43:10;21.77;;;9.13;;
21777;SDS011;11050;52.222;20.916;2024-01-07T00:45:35;22.13;;;9.77;;
21777;SDS011;11050;52.222;20.916;2024-01-07T00:48:01;21.03;;;10.13;;
21777;SDS011;11050;52.222;20.916;2024-01-07T00:50:27;24.10;;;10.27;;
21777;SDS011;11050;52.222;20.916;2024-01-07T00:52:53;27.73;;;10.43;;
21777;SDS011;11050;52.222;20.916;2024-01-07T00:55:19;21.00;;;9.67;;
21777;SDS011;11050;52.222;20.916;2024-01-07T00:57:44;21.53;;;10.43;;
21777;SDS011;11050;52.222;20.916;2024-01-07T01:00:10;24.03;;;10.33;;
21777;SDS011;11050;52.222;20.916;2024-01-07T01:02:37;22.27;;;9.23;;
21777;SDS011;11050;52.222;20.916;2024-01-07T01:05:03;22.57;;;9.63;;
21777;SDS011;11050;52.222;20.916;2024-01-07T01:07:29;19.37;;;10.23;;
21777;SDS011;11050;52.222;20.916;2024-01-07T01:09:55;19.40;;;8.70;;
21777;SDS011;11050;52.222;20.916;2024-01-07T01:12:20;19.23;;;9.80;;
21777;SDS011;11050;52.222;20.916;2024-01-07T01:14:46;18.90;;;9.30;;
21777;SDS011;11050;52.222;20.916;2024-01-07T01:17:12;18.10;;;8.83;;
21777;SDS011;11050;52.222;20.916;2024-01-07T01:19:38;21.77;;;9.97;;
21777;SDS011;11050;52.222;20.916;2024-01-07T01:22:03;20.30;;;8.73;;
21777;SDS011;11050;52.222;20.916;2024-01-07T01:24:29;20.33;;;9.23;;
21777;SDS011;11050;52.222;20.916;2024-01-07T01:26:55;21.60;;;9.40;;
21777;SDS011;11050;52.222;20.916;2024-01-07T01:29:20;19.23;;;8.67;;
21777;SDS011;11050;52.222;20.916;2024-01-07T01:31:46;19.30;;;8.80;;
21777;SDS011;11050;52.222;20.916;2024-01-07T01:34:12;19.17;;;8.73;;
21777;SDS011;11050;52.222;20.916;2024-01-07T01:36:37;17.23;;;9.00;;
21777;SDS011;11050;52.222;20.916;2024-01-07T01:39:03;18.57;;;7.77;;
21777;SDS011;11050;52.222;20.916;2024-01-07T01:41:29;18.03;;;8.07;;
21777;SDS011;11050;52.222;20.916;2024-01-07T01:43:58;19.20;;;7.67;;
21777;SDS011;11050;52.222;20.916;2024-01-07T01:46:25;14.10;;;7.97;;
21777;SDS011;11050;52.222;20.916;2024-01-07T01:48:53;16.60;;;8.43;;
21777;SDS011;11050;52.222;20.916;2024-01-07T01:51:19;17.67;;;8.23;;
21777;SDS011;11050;52.222;20.916;2024-01-07T01:53:46;17.87;;;8.30;;
21777;SDS011;11050;52.222;20.916;2024-01-07T01:56:16;18.10;;;8.73;;
21777;SDS011;11050;52.222;20.916;2024-01-07T01:58:45;14.97;;;7.90;;
21777;SDS011;11050;52.222;20.916;2024-01-07T02:01:13;15.37;;;7.83;;
21777;SDS011;11050;52.222;20.916;2024-01-07T02:03:39;18.73;;;8.57;;
21777;SDS011;11050;52.222;20.916;2024-01-07T02:06:05;15.67;;;8.23;;
21777;SDS011;11050;52.222;20.916;2024-01-07T02:08:31;15.93;;;7.63;;
21777;SDS011;11050;52.222;20.916;2024-01-07T02:10:57;18.00;;;8.30;;
21777;SDS011;11050;52.222;20.916;2024-01-07T02:13:23;15.03;;;7.43;;
21777;SDS011;11050;52.222;20.916;2024-01-07T02:15:49;14.80;;;7.07;;
21777;SDS011;11050;52.222;20.916;2024-01-07T02:18:14;17.20;;;7.50;;
21777;SDS011;11050;52.222;20.916;2024-01-07T02:20:40;16.03;;;7.47;;
21777;SDS011;11050;52.222;20.916;2024-01-07T02:23:06;15.30;;;7.30;;
21777;SDS011;11050;52.222;20.916;2024-01-07T02:25:38;16.57;;;6.57;;
21777;SDS011;11050;52.222;20.916;2024-01-07T02:28:04;14.87;;;6.93;;
21777;SDS011;11050;52.222;20.916;2024-01-07T02:30:30;18.23;;;7.60;;
21777;SDS011;11050;52.222;20.916;2024-01-07T02:33:00;14.37;;;6.57;;
21777;SDS011;11050;52.222;20.916;2024-01-07T02:35:31;12.13;;;6.93;;
21777;SDS011;11050;52.222;20.916;2024-01-07T02:37:56;16.03;;;7.27;;
21777;SDS011;11050;52.222;20.916;2024-01-07T02:40:22;14.23;;;6.87;;
21777;SDS011;11050;52.222;20.916;2024-01-07T02:42:48;15.57;;;6.53;;
21777;SDS011;11050;52.222;20.916;2024-01-07T02:45:14;15.53;;;7.40;;
21777;SDS011;11050;52.222;20.916;2024-01-07T02:47:39;12.07;;;6.83;;
21777;SDS011;11050;52.222;20.916;2024-01-07T02:50:05;15.33;;;7.47;;
21777;SDS011;11050;52.222;20.916;2024-01-07T02:52:31;15.37;;;7.10;;
21777;SDS011;11050;52.222;20.916;2024-01-07T02:54:58;13.37;;;7.03;;
21777;SDS011;11050;52.222;20.916;2024-01-07T02:57:26;13.67;;;7.40;;
21777;SDS011;11050;52.222;20.916;2024-01-07T02:59:52;16.10;;;7.90;;
21777;SDS011;11050;52.222;20.916;2024-01-07T03:02:18;17.07;;;7.97;;
21777;SDS011;11050;52.222;20.916;2024-01-07T03:04:44;15.20;;;7.80;;
21777;SDS011;11050;52.222;20.916;2024-01-07T03:07:09;17.83;;;8.47;;
21777;SDS011;11050;52.222;20.916;2024-01-07T03:09:35;16.97;;;9.03;;
21777;SDS011;11050;52.222;20.916;2024-01-07T03:12:01;17.43;;;8.17;;
21777;SDS011;11050;52.222;20.916;2024-01-07T03:14:27;16.83;;;7.87;;
21777;SDS011;11050;52.222;20.916;2024-01-07T03:16:52;20.57;;;9.97;;
21777;SDS011;11050;52.222;20.916;2024-01-07T03:19:18;14.77;;;8.07;;
21777;SDS011;11050;52.222;20.916;2024-01-07T03:21:45;15.90;;;8.53;;
21777;SDS011;11050;52.222;20.916;2024-01-07T03:24:12;16.37;;;8.33;;
21777;SDS011;11050;52.222;20.916;2024-01-07T03:26:38;18.93;;;8.60;;
21777;SDS011;11050;52.222;20.916;2024-01-07T03:29:04;20.90;;;8.03;;
21777;SDS011;11050;52.222;20.916;2024-01-07T03:31:30;14.90;;;8.00;;
21777;SDS011;11050;52.222;20.916;2024-01-07T03:33:56;14.83;;;7.67;;
21777;SDS011;11050;52.222;20.916;2024-01-07T03:36:22;22.07;;;9.90;;
21777;SDS011;11050;52.222;20.916;2024-01-07T03:38:47;15.23;;;7.90;;
21777;SDS011;11050;52.222;20.916;2024-01-07T03:41:16;15.77;;;8.00;;
21777;SDS011;11050;52.222;20.916;2024-01-07T03:43:46;16.97;;;8.90;;
21777;SDS011;11050;52.222;20.916;2024-01-07T03:46:12;17.17;;;8.73;;
21777;SDS011;11050;52.222;20.916;2024-01-07T03:48:39;16.00;;;8.27;;
21777;SDS011;11050;52.222;20.916;2024-01-07T03:51:06;17.17;;;8.40;;
21777;SDS011;11050;52.222;20.916;2024-01-07T03:53:33;14.13;;;6.57;;
21777;SDS011;11050;52.222;20.916;2024-01-07T03:55:58;16.90;;;8.60;;
21777;SDS011;11050;52.222;20.916;2024-01-07T03:58:24;15.97;;;8.00;;
21777;SDS011;11050;52.222;20.916;2024-01-07T04:00:50;17.67;;;8.07;;
21777;SDS011;11050;52.222;20.916;2024-01-07T04:03:16;18.90;;;8.17;;
21777;SDS011;11050;52.222;20.916;2024-01-07T04:05:41;15.33;;;6.77;;
21777;SDS011;11050;52.222;20.916;2024-01-07T04:08:11;14.10;;;7.50;;
21777;SDS011;11050;52.222;20.916;2024-01-07T04:10:37;16.77;;;8.17;;
21777;SDS011;11050;52.222;20.916;2024-01-07T04:13:03;16.27;;;7.97;;
21777;SDS011;11050;52.222;20.916;2024-01-07T04:15:29;17.23;;;7.60;;
21777;SDS011;11050;52.222;20.916;2024-01-07T04:17:55;16.83;;;8.17;;
21777;SDS011;11050;52.222;20.916;2024-01-07T04:20:21;16.97;;;8.30;;
21777;SDS011;11050;52.222;20.916;2024-01-07T04:22:47;15.50;;;8.20;;
21777;SDS011;11050;52.222;20.916;2024-01-07T04:25:13;15.70;;;7.90;;
21777;SDS011;11050;52.222;20.916;2024-01-07T04:27:38;17.03;;;8.00;;
21777;SDS011;11050;52.222;20.916;2024-01-07T04:30:05;16.63;;;7.60;;
21777;SDS011;11050;52.222;20.916;2024-01-07T04:32:31;16.00;;;7.40;;
21777;SDS011;11050;52.222;20.916;2024-01-07T04:34:57;17.30;;;8.43;;
21777;SDS011;11050;52.222;20.916;2024-01-07T04:37:24;17.93;;;8.10;;
21777;SDS011;11050;52.222;20.916;2024-01-07T04:39:49;14.77;;;7.33;;
21777;SDS011;11050;52.222;20.916;2024-01-07T04:42:16;17.40;;;8.03;;
21777;SDS011;11050;52.222;20.916;2024-01-07T04:44:43;14.10;;;7.13;;
21777;SDS011;11050;52.222;20.916;2024-01-07T04:49:59;16.17;;;6.87;;
21777;SDS011;11050;52.222;20.916;2024-01-07T04:52:25;14.30;;;7.30;;
21777;SDS011;11050;52.222;20.916;2024-01-07T04:54:51;15.50;;;8.50;;
21777;SDS011;11050;52.222;20.916;2024-01-07T04:57:21;17.63;;;8.27;;
21777;SDS011;11050;52.222;20.916;2024-01-07T04:59:47;14.53;;;6.97;;
21777;SDS011;11050;52.222;20.916;2024-01-07T05:02:15;13.30;;;7.17;;
21777;SDS011;11050;52.222;20.916;2024-01-07T05:04:42;15.83;;;7.50;;
21777;SDS011;11050;52.222;20.916;2024-01-07T05:07:08;14.50;;;7.77;;
21777;SDS011;11050;52.222;20.916;2024-01-07T05:09:34;17.83;;;7.07;;
21777;SDS011;11050;52.222;20.916;2024-01-07T05:12:00;15.07;;;7.23;;
21777;SDS011;11050;52.222;20.916;2024-01-07T05:14:26;14.20;;;7.13;;
21777;SDS011;11050;52.222;20.916;2024-01-07T05:16:55;17.00;;;7.60;;
21777;SDS011;11050;52.222;20.916;2024-01-07T05:19:21;17.70;;;8.13;;
21777;SDS011;11050;52.222;20.916;2024-01-07T05:21:47;13.53;;;7.10;;
21777;SDS011;11050;52.222;20.916;2024-01-07T05:24:12;16.10;;;8.20;;
21777;SDS011;11050;52.222;20.916;2024-01-07T05:26:39;14.33;;;7.47;;
21777;SDS011;11050;52.222;20.916;2024-01-07T05:29:07;16.63;;;7.43;;
21777;SDS011;11050;52.222;20.916;2024-01-07T05:31:32;15.43;;;7.63;;
21777;SDS011;11050;52.222;20.916;2024-01-07T05:33:58;13.23;;;7.43;;
21777;SDS011;11050;52.222;20.916;2024-01-07T05:36:24;13.53;;;7.40;;
21777;SDS011;11050;52.222;20.916;2024-01-07T05:38:50;15.50;;;7.47;;
21777;SDS011;11050;52.222;20.916;2024-01-07T05:41:16;13.13;;;6.93;;
21777;SDS011;11050;52.222;20.916;2024-01-07T05:43:41;14.83;;;8.07;;
21777;SDS011;11050;52.222;20.916;2024-01-07T05:46:07;13.13;;;8.20;;
21777;SDS011;11050;52.222;20.916;2024-01-07T05:48:43;15.87;;;8.10;;
21777;SDS011;11050;52.222;20.916;2024-01-07T05:51:10;15.73;;;7.23;;
21777;SDS011;11050;52.222;20.916;2024-01-07T05:53:36;15.63;;;7.53;;
21777;SDS011;11050;52.222;20.916;2024-01-07T05:56:02;16.03;;;7.83;;
21777;SDS011;11050;52.222;20.916;2024-01-07T05:58:29;17.27;;;8.00;;
21777;SDS011;11050;52.222;20.916;2024-01-07T06:00:55;13.00;;;7.47;;
21777;SDS011;11050;52.222;20.916;2024-01-07T06:03:21;15.67;;;7.27;;
21777;SDS011;11050;52.222;20.916;2024-01-07T06:05:47;14.63;;;7.63;;
21777;SDS011;11050;52.222;20.916;2024-01-07T06:08:13;12.57;;;7.03;;
21777;SDS011;11050;52.222;20.916;2024-01-07T06:10:39;16.87;;;7.73;;
21777;SDS011;11050;52.222;20.916;2024-01-07T06:13:05;14.00;;;6.07;;
21777;SDS011;11050;52.222;20.916;2024-01-07T06:15:32;12.13;;;4.73;;
21777;SDS011;11050;52.222;20.916;2024-01-07T06:17:57;18.10;;;8.07;;
21777;SDS011;11050;52.222;20.916;2024-01-07T06:20:23;13.00;;;7.10;;
21777;SDS011;11050;52.222;20.916;2024-01-07T06:22:49;16.50;;;7.80;;
21777;SDS011;11050;52.222;20.916;2024-01-07T06:25:15;15.00;;;7.30;;
21777;SDS011;11050;52.222;20.916;2024-01-07T06:27:42;13.63;;;7.10;;
21777;SDS011;11050;52.222;20.916;2024-01-07T06:30:08;15.23;;;6.90;;
21777;SDS011;11050;52.222;20.916;2024-01-07T06:32:34;13.30;;;7.90;;
21777;SDS011;11050;52.222;20.916;2024-01-07T06:35:00;16.47;;;7.17;;
21777;SDS011;11050;52.222;20.916;2024-01-07T06:37:28;14.83;;;7.17;;
21777;SDS011;11050;52.222;20.916;2024-01-07T06:39:55;14.43;;;6.63;;
21777;SDS011;11050;52.222;20.916;2024-01-07T06:42:23;19.53;;;6.70;;
21777;SDS011;11050;52.222;20.916;2024-01-07T06:44:49;14.63;;;7.10;;
21777;SDS011;11050;52.222;20.916;2024-01-07T06:47:15;14.50;;;7.33;;
21777;SDS011;11050;52.222;20.916;2024-01-07T06:49:41;14.93;;;7.30;;
21777;SDS011;11050;52.222;20.916;2024-01-07T06:52:07;11.67;;;6.93;;
21777;SDS011;11050;52.222;20.916;2024-01-07T06:54:32;11.07;;;6.80;;
21777;SDS011;11050;52.222;20.916;2024-01-07T06:56:58;12.20;;;6.90;;
21777;SDS011;11050;52.222;20.916;2024-01-07T06:59:24;14.93;;;7.30;;
21777;SDS011;11050;52.222;20.916;2024-01-07T07:01:50;12.97;;;6.93;;
21777;SDS011;11050;52.222;20.916;2024-01-07T07:04:16;16.00;;;7.63;;
21777;SDS011;11050;52.222;20.916;2024-01-07T07:06:42;15.23;;;7.40;;
21777;SDS011;11050;52.222;20.916;2024-01-07T07:09:07;14.37;;;7.27;;
21777;SDS011;11050;52.222;20.916;2024-01-07T07:11:33;13.57;;;6.20;;
21777;SDS011;11050;52.222;20.916;2024-01-07T07:13:59;15.47;;;7.03;;
21777;SDS011;11050;52.222;20.916;2024-01-07T07:16:25;11.30;;;6.17;;
21777;SDS011;11050;52.222;20.916;2024-01-07T07:18:51;12.63;;;6.57;;
21777;SDS011;11050;52.222;20.916;2024-01-07T07:21:17;13.07;;;6.67;;
21777;SDS011;11050;52.222;20.916;2024-01-07T07:23:44;11.23;;;6.77;;
21777;SDS011;11050;52.222;20.916;2024-01-07T07:26:10;10.20;;;6.07;;
21777;SDS011;11050;52.222;20.916;2024-01-07T07:28:35;16.20;;;7.67;;
21777;SDS011;11050;52.222;20.916;2024-01-07T07:31:02;13.03;;;6.67;;
21777;SDS011;11050;52.222;20.916;2024-01-07T07:33:27;13.53;;;7.07;;
21777;SDS011;11050;52.222;20.916;2024-01-07T07:35:53;13.33;;;6.93;;
21777;SDS011;11050;52.222;20.916;2024-01-07T07:38:19;14.43;;;7.13;;
21777;SDS011;11050;52.222;20.916;2024-01-07T07:40:44;13.90;;;7.33;;
21777;SDS011;11050;52.222;20.916;2024-01-07T07:43:17;10.93;;;5.83;;
21777;SDS011;11050;52.222;20.916;2024-01-07T07:45:45;11.77;;;6.63;;
21777;SDS011;11050;52.222;20.916;2024-01-07T07:48:11;13.87;;;7.33;;
21777;SDS011;11050;52.222;20.916;2024-01-07T07:50:37;13.87;;;6.87;;
21777;SDS011;11050;52.222;20.916;2024-01-07T07:53:03;12.87;;;6.77;;
21777;SDS011;11050;52.222;20.916;2024-01-07T07:55:29;11.87;;;6.80;;
21777;SDS011;11050;52.222;20.916;2024-01-07T07:57:54;12.33;;;6.63;;
21777;SDS011;11050;52.222;20.916;2024-01-07T08:00:20;12.43;;;6.20;;
21777;SDS011;11050;52.222;20.916;2024-01-07T08:02:46;13.53;;;6.80;;
21777;SDS011;11050;52.222;20.916;2024-01-07T08:05:12;13.53;;;7.20;;
21777;SDS011;11050;52.222;20.916;2024-01-07T08:07:38;11.27;;;6.70;;
21777;SDS011;11050;52.222;20.916;2024-01-07T08:10:04;12.23;;;6.30;;
21777;SDS011;11050;52.222;20.916;2024-01-07T08:12:31;14.70;;;7.17;;
21777;SDS011;11050;52.222;20.916;2024-01-07T08:14:57;11.03;;;6.40;;
21777;SDS011;11050;52.222;20.916;2024-01-07T08:17:23;11.40;;;7.20;;
21777;SDS011;11050;52.222;20.916;2024-01-07T08:19:48;12.13;;;6.93;;
21777;SDS011;11050;52.222;20.916;2024-01-07T08:22:14;14.17;;;7.07;;
21777;SDS011;11050;52.222;20.916;2024-01-07T08:24:40;17.30;;;7.27;;
21777;SDS011;11050;52.222;20.916;2024-01-07T08:27:06;11.60;;;6.47;;
21777;SDS011;11050;52.222;20.916;2024-01-07T08:29:33;11.87;;;6.97;;
21777;SDS011;11050;52.222;20.916;2024-01-07T08:31:58;13.17;;;6.73;;
21777;SDS011;11050;52.222;20.916;2024-01-07T08:34:24;14.67;;;6.33;;
21777;SDS011;11050;52.222;20.916;2024-01-07T08:36:51;11.70;;;6.80;;
21777;SDS011;11050;52.222;20.916;2024-01-07T08:39:18;14.23;;;7.43;;
21777;SDS011;11050;52.222;20.916;2024-01-07T08:41:45;13.70;;;6.80;;
21777;SDS011;11050;52.222;20.916;2024-01-07T08:44:11;11.00;;;6.77;;
21777;SDS011;11050;52.222;20.916;2024-01-07T08:46:36;12.60;;;7.00;;
21777;SDS011;11050;52.222;20.916;2024-01-07T08:49:02;13.33;;;6.33;;
21777;SDS011;11050;52.222;20.916;2024-01-07T08:51:29;12.00;;;6.63;;
21777;SDS011;11050;52.222;20.916;2024-01-07T08:53:55;12.10;;;6.77;;
21777;SDS011;11050;52.222;20.916;2024-01-07T08:56:23;13.30;;;6.67;;
21777;SDS011;11050;52.222;20.916;2024-01-07T08:58:49;11.43;;;6.30;;
21777;SDS011;11050;52.222;20.916;2024-01-07T09:01:14;11.03;;;5.67;;
21777;SDS011;11050;52.222;20.916;2024-01-07T09:03:40;13.93;;;6.97;;
21777;SDS011;11050;52.222;20.916;2024-01-07T09:06:07;14.07;;;7.53;;
21777;SDS011;11050;52.222;20.916;2024-01-07T09:08:33;11.60;;;6.50;;
21777;SDS011;11050;52.222;20.916;2024-01-07T09:11:00;15.33;;;7.73;;
21777;SDS011;11050;52.222;20.916;2024-01-07T09:13:29;13.30;;;6.97;;
21777;SDS011;11050;52.222;20.916;2024-01-07T09:15:54;15.47;;;10.13;;
21777;SDS011;11050;52.222;20.916;2024-01-07T09:18:20;14.33;;;7.57;;
21777;SDS011;11050;52.222;20.916;2024-01-07T09:20:46;13.67;;;7.33;;
21777;SDS011;11050;52.222;20.916;2024-01-07T09:23:12;11.33;;;5.87;;
21777;SDS011;11050;52.222;20.916;2024-01-07T09:25:37;13.83;;;7.40;;
21777;SDS011;11050;52.222;20.916;2024-01-07T09:28:03;16.07;;;8.00;;
21777;SDS011;11050;52.222;20.916;2024-01-07T09:30:30;12.23;;;7.00;;
21777;SDS011;11050;52.222;20.916;2024-01-07T09:32:55;13.17;;;7.13;;
21777;SDS011;11050;52.222;20.916;2024-01-07T09:35:21;11.73;;;7.37;;
21777;SDS011;11050;52.222;20.916;2024-01-07T09:37:47;11.37;;;6.73;;
21777;SDS011;11050;52.222;20.916;2024-01-07T09:40:12;14.30;;;7.53;;
21777;SDS011;11050;52.222;20.916;2024-01-07T09:42:46;14.70;;;6.87;;
21777;SDS011;11050;52.222;20.916;2024-01-07T09:45:13;12.97;;;7.03;;
21777;SDS011;11050;52.222;20.916;2024-01-07T09:47:42;9.77;;;5.80;;
21777;SDS011;11050;52.222;20.916;2024-01-07T09:50:10;11.97;;;6.87;;
21777;SDS011;11050;52.222;20.916;2024-01-07T09:52:41;12.73;;;7.13;;
21777;SDS011;11050;52.222;20.916;2024-01-07T09:55:19;9.93;;;6.13;;
21777;SDS011;11050;52.222;20.916;2024-01-07T09:57:58;12.57;;;7.27;;
21777;SDS011;11050;52.222;20.916;2024-01-07T10:00:25;14.93;;;6.87;;
21777;SDS011;11050;52.222;20.916;2024-01-07T10:02:53;11.77;;;6.50;;
21777;SDS011;11050;52.222;20.916;2024-01-07T10:05:19;14.83;;;6.30;;
21777;SDS011;11050;52.222;20.916;2024-01-07T10:07:45;13.77;;;7.17;;
21777;SDS011;11050;52.222;20.916;2024-01-07T10:10:17;14.03;;;7.47;;
21777;SDS011;11050;52.222;20.916;2024-01-07T10:12:43;11.87;;;6.93;;
21777;SDS011;11050;52.222;20.916;2024-01-07T10:15:13;13.57;;;6.63;;
21777;SDS011;11050;52.222;20.916;2024-01-07T10:17:41;11.60;;;6.40;;
21777;SDS011;11050;52.222;20.916;2024-01-07T10:20:07;14.77;;;8.20;;
21777;SDS011;11050;52.222;20.916;2024-01-07T10:22:38;12.10;;;6.90;;
21777;SDS011;11050;52.222;20.916;2024-01-07T10:25:04;11.73;;;6.43;;
21777;SDS011;11050;52.222;20.916;2024-01-07T10:27:34;12.13;;;7.13;;
21777;SDS011;11050;52.222;20.916;2024-01-07T10:30:02;13.63;;;6.97;;
21777;SDS011;11050;52.222;20.916;2024-01-07T10:32:28;14.10;;;7.97;;
21777;SDS011;11050;52.222;20.916;2024-01-07T10:34:55;13.93;;;7.13;;
21777;SDS011;11050;52.222;20.916;2024-01-07T10:37:31;16.07;;;7.73;;
21777;SDS011;11050;52.222;20.916;2024-01-07T10:39:58;12.90;;;7.30;;
21777;SDS011;11050;52.222;20.916;2024-01-07T10:42:31;17.60;;;7.03;;
21777;SDS011;11050;52.222;20.916;2024-01-07T10:44:59;14.00;;;7.73;;
21777;SDS011;11050;52.222;20.916;2024-01-07T10:47:34;13.33;;;7.60;;
21777;SDS011;11050;52.222;20.916;2024-01-07T10:50:03;12.70;;;7.57;;
21777;SDS011;11050;52.222;20.916;2024-01-07T10:52:30;12.17;;;6.80;;
21777;SDS011;11050;52.222;20.916;2024-01-07T10:55:07;13.67;;;7.83;;
21777;SDS011;11050;52.222;20.916;2024-01-07T10:57:43;13.73;;;6.63;;
21777;SDS011;11050;52.222;20.916;2024-01-07T11:00:12;13.53;;;7.20;;
21777;SDS011;11050;52.222;20.916;2024-01-07T11:02:51;16.33;;;7.87;;
21777;SDS011;11050;52.222;20.916;2024-01-07T11:11:18;13.10;;;6.70;;
21777;SDS011;11050;52.222;20.916;2024-01-07T11:13:50;13.43;;;7.40;;
21777;SDS011;11050;52.222;20.916;2024-01-07T11:16:40;13.07;;;7.33;;
21777;SDS011;11050;52.222;20.916;2024-01-07T11:19:14;13.07;;;7.53;;
21777;SDS011;11050;52.222;20.916;2024-01-07T11:21:39;11.53;;;6.63;;
21777;SDS011;11050;52.222;20.916;2024-01-07T11:24:05;14.33;;;7.60;;
21777;SDS011;11050;52.222;20.916;2024-01-07T11:26:31;12.90;;;7.87;;
21777;SDS011;11050;52.222;20.916;2024-01-07T11:28:57;14.23;;;8.23;;
21777;SDS011;11050;52.222;20.916;2024-01-07T11:31:43;13.07;;;6.80;;
21777;SDS011;11050;52.222;20.916;2024-01-07T11:34:37;13.17;;;7.60;;
21777;SDS011;11050;52.222;20.916;2024-01-07T11:37:12;15.70;;;7.77;;
21777;SDS011;11050;52.222;20.916;2024-01-07T11:39:44;18.63;;;8.90;;
21777;SDS011;11050;52.222;20.916;2024-01-07T11:42:11;13.60;;;8.27;;
21777;SDS011;11050;52.222;20.916;2024-01-07T11:44:44;15.57;;;7.90;;
21777;SDS011;11050;52.222;20.916;2024-01-07T11:47:19;12.03;;;7.37;;
21777;SDS011;11050;52.222;20.916;2024-01-07T11:49:46;15.30;;;7.80;;
21777;SDS011;11050;52.222;20.916;2024-01-07T11:52:14;13.37;;;7.10;;
21777;SDS011;11050;52.222;20.916;2024-01-07T11:54:40;13.83;;;7.80;;
21777;SDS011;11050;52.222;20.916;2024-01-07T11:57:07;13.53;;;7.40;;
21777;SDS011;11050;52.222;20.916;2024-01-07T11:59:33;12.03;;;7.03;;
21777;SDS011;11050;52.222;20.916;2024-01-07T12:02:03;16.53;;;7.70;;
21777;SDS011;11050;52.222;20.916;2024-01-07T12:04:32;17.53;;;7.30;;
21777;SDS011;11050;52.222;20.916;2024-01-07T12:06:58;14.17;;;7.97;;
21777;SDS011;11050;52.222;20.916;2024-01-07T12:09:25;12.13;;;7.27;;
21777;SDS011;11050;52.222;20.916;2024-01-07T12:11:51;14.53;;;7.37;;
21777;SDS011;11050;52.222;20.916;2024-01-07T12:14:18;11.63;;;7.07;;
21777;SDS011;11050;52.222;20.916;2024-01-07T12:16:45;16.90;;;6.97;;
21777;SDS011;11050;52.222;20.916;2024-01-07T12:19:12;12.73;;;7.67;;
21777;SDS011;11050;52.222;20.916;2024-01-07T12:21:38;13.00;;;6.70;;
21777;SDS011;11050;52.222;20.916;2024-01-07T12:24:05;12.87;;;6.60;;
21777;SDS011;11050;52.222;20.916;2024-01-07T12:26:31;15.20;;;7.50;;
21777;SDS011;11050;52.222;20.916;2024-01-07T12:28:58;11.13;;;5.97;;
21777;SDS011;11050;52.222;20.916;2024-01-07T12:31:31;13.17;;;7.33;;
21777;SDS011;11050;52.222;20.916;2024-01-07T12:33:59;14.33;;;7.73;;
21777;SDS011;11050;52.222;20.916;2024-01-07T12:36:25;15.23;;;6.67;;
21777;SDS011;11050;52.222;20.916;2024-01-07T12:38:52;12.80;;;7.03;;
21777;SDS011;11050;52.222;20.916;2024-01-07T12:41:21;11.50;;;6.23;;
21777;SDS011;11050;52.222;20.916;2024-01-07T12:43:48;12.37;;;6.63;;
21777;SDS011;11050;52.222;20.916;2024-01-07T12:46:15;13.13;;;6.70;;
21777;SDS011;11050;52.222;20.916;2024-01-07T12:48:41;11.17;;;6.17;;
21777;SDS011;11050;52.222;20.916;2024-01-07T12:51:07;12.67;;;6.87;;
21777;SDS011;11050;52.222;20.916;2024-01-07T12:53:33;10.30;;;6.70;;
21777;SDS011;11050;52.222;20.916;2024-01-07T12:55:59;13.83;;;7.40;;
21777;SDS011;11050;52.222;20.916;2024-01-07T12:58:24;11.07;;;6.60;;
21777;SDS011;11050;52.222;20.916;2024-01-07T13:00:50;11.57;;;6.77;;
21777;SDS011;11050;52.222;20.916;2024-01-07T13:03:16;11.23;;;6.60;;
21777;SDS011;11050;52.222;20.916;2024-01-07T13:05:46;10.23;;;5.80;;
21777;SDS011;11050;52.222;20.916;2024-01-07T13:08:15;10.90;;;6.27;;
21777;SDS011;11050;52.222;20.916;2024-01-07T13:10:43;11.67;;;6.50;;
21777;SDS011;11050;52.222;20.916;2024-01-07T13:13:11;15.13;;;6.97;;
21777;SDS011;11050;52.222;20.916;2024-01-07T13:15:38;15.47;;;7.20;;
21777;SDS011;11050;52.222;20.916;2024-01-07T13:18:06;14.47;;;7.10;;
21777;SDS011;11050;52.222;20.916;2024-01-07T13:20:31;14.73;;;7.63;;
21777;SDS011;11050;52.222;20.916;2024-01-07T13:22:57;12.03;;;6.10;;
21777;SDS011;11050;52.222;20.916;2024-01-07T13:25:23;17.53;;;8.77;;
21777;SDS011;11050;52.222;20.916;2024-01-07T13:27:49;18.87;;;9.03;;
21777;SDS011;11050;52.222;20.916;2024-01-07T13:30:14;14.13;;;7.83;;
21777;SDS011;11050;52.222;20.916;2024-01-07T13:32:41;15.67;;;8.63;;
21777;SDS011;11050;52.222;20.916;2024-01-07T13:35:07;12.40;;;7.07;;
21777;SDS011;11050;52.222;20.916;2024-01-07T13:37:35;12.83;;;6.70;;
21777;SDS011;11050;52.222;20.916;2024-01-07T13:40:02;12.87;;;6.50;;
21777;SDS011;11050;52.222;20.916;2024-01-07T13:42:29;12.93;;;6.80;;
21777;SDS011;11050;52.222;20.916;2024-01-07T13:44:55;12.83;;;6.50;;
21777;SDS011;11050;52.222;20.916;2024-01-07T13:47:21;10.37;;;5.97;;
21777;SDS011;11050;52.222;20.916;2024-01-07T13:49:47;11.67;;;5.37;;
21777;SDS011;11050;52.222;20.916;2024-01-07T13:52:12;12.83;;;6.70;;
21777;SDS011;11050;52.222;20.916;2024-01-07T13:54:38;14.83;;;6.50;;
21777;SDS011;11050;52.222;20.916;2024-01-07T13:57:04;12.20;;;6.87;;
21777;SDS011;11050;52.222;20.916;2024-01-07T13:59:30;16.03;;;7.60;;
21777;SDS011;11050;52.222;20.916;2024-01-07T14:01:55;13.37;;;6.67;;
21777;SDS011;11050;52.222;20.916;2024-01-07T14:04:25;13.77;;;7.53;;
21777;SDS011;11050;52.222;20.916;2024-01-07T14:06:54;15.93;;;7.57;;
21777;SDS011;11050;52.222;20.916;2024-01-07T14:09:21;14.13;;;7.97;;
21777;SDS011;11050;52.222;20.916;2024-01-07T14:11:47;19.57;;;6.50;;
21777;SDS011;11050;52.222;20.916;2024-01-07T14:14:13;13.87;;;6.63;;
21777;SDS011;11050;52.222;20.916;2024-01-07T14:16:39;13.87;;;7.53;;
21777;SDS011;11050;52.222;20.916;2024-01-07T14:19:05;12.80;;;7.40;;
21777;SDS011;11050;52.222;20.916;2024-01-07T14:21:31;13.53;;;7.50;;
21777;SDS011;11050;52.222;20.916;2024-01-07T14:23:57;15.07;;;8.20;;
21777;SDS011;11050;52.222;20.916;2024-01-07T14:26:23;11.57;;;6.93;;
21777;SDS011;11050;52.222;20.916;2024-01-07T14:28:49;14.10;;;7.00;;